createdAt,value
2023-08-12T00:10:26.937Z,3.50
2023-08-12T00:24:26.773Z,3.40
2023-08-12T00:38:26.638Z,3.50
2023-08-12T00:52:26.472Z,3.20
2023-08-12T01:06:26.347Z,3.30
2023-08-12T01:20:26.232Z,3.30
2023-08-12T01:34:26.000Z,3.30
2023-08-12T01:48:25.953Z,3.30
2023-08-12T02:02:25.707Z,3.40
2023-08-12T02:16:25.610Z,3.20
2023-08-12T02:30:25.380Z,3.40
2023-08-12T02:44:25.245Z,2.50
2023-08-12T02:58:25.076Z,2.80
2023-08-12T03:12:24.990Z,2.50
2023-08-12T03:26:24.779Z,2.60
2023-08-12T03:40:24.634Z,2.60
2023-08-12T03:54:24.432Z,2.70
2023-08-12T04:08:24.294Z,2.80
2023-08-12T04:22:24.100Z,3.10
2023-08-12T04:36:23.998Z,3.00
2023-08-12T04:50:23.835Z,3.20
2023-08-12T05:04:23.626Z,3.80
2023-08-12T05:18:23.484Z,3.60
2023-08-12T05:32:23.329Z,4.70
2023-08-12T05:46:23.374Z,4.40
2023-08-12T06:00:23.003Z,4.60
2023-08-12T06:14:22.852Z,4.70
2023-08-12T06:28:22.707Z,5.10
2023-08-12T06:42:22.626Z,5.00
2023-08-12T06:56:22.429Z,5.00
2023-08-12T07:10:24.123Z,5.30
2023-08-12T07:24:22.167Z,5.40
2023-08-12T07:38:21.944Z,4.80
2023-08-12T07:52:21.836Z,5.00
2023-08-12T08:06:21.633Z,5.30
2023-08-12T08:20:21.516Z,5.50
2023-08-12T08:34:21.336Z,6.20
2023-08-12T08:48:21.176Z,6.30
2023-08-12T09:02:21.043Z,6.20
2023-08-12T09:16:20.883Z,5.30
2023-08-12T09:30:20.733Z,5.40
2023-08-12T09:44:20.612Z,6.50
2023-08-12T09:58:20.431Z,6.10
2023-08-12T10:12:20.511Z,5.20
2023-08-12T10:26:20.156Z,6.50
2023-08-12T10:40:20.008Z,6.80
2023-08-12T10:54:19.864Z,5.80
2023-08-12T11:08:19.721Z,5.00
2023-08-12T11:22:20.139Z,4.10
2023-08-12T11:36:19.475Z,4.00
2023-08-12T11:50:19.237Z,3.30
2023-08-12T12:04:19.704Z,3.30
2023-08-12T12:18:18.997Z,3.30
2023-08-12T12:32:18.844Z,2.80
2023-08-12T12:46:18.780Z,2.90
2023-08-12T13:00:18.556Z,2.80
2023-08-12T13:14:18.389Z,1.00
2023-08-12T13:28:18.234Z,1.20
2023-08-12T13:42:18.120Z,1.50
2023-08-12T13:56:17.950Z,1.60
2023-08-12T14:10:17.830Z,1.70
2023-08-12T14:24:17.655Z,1.40
2023-08-12T14:38:17.505Z,1.50
2023-08-12T14:52:17.375Z,1.50
2023-08-12T15:06:17.226Z,1.60
2023-08-12T15:20:17.062Z,1.90
2023-08-12T15:34:16.960Z,1.90
2023-08-12T15:48:16.779Z,1.00
2023-08-12T16:02:16.900Z,1.20
2023-08-12T16:16:16.504Z,1.10
2023-08-12T16:30:16.367Z,1.80
2023-08-12T16:44:16.201Z,2.50
2023-08-12T16:58:16.047Z,2.50
2023-08-12T17:12:16.344Z,1.50
2023-08-12T17:26:15.753Z,1.50
2023-08-12T17:40:15.589Z,2.00
2023-08-12T17:54:15.438Z,1.10
2023-08-12T18:08:15.284Z,1.60
2023-08-12T18:22:15.428Z,1.60
2023-08-12T18:36:15.019Z,1.50
2023-08-12T18:50:14.862Z,1.30
2023-08-12T19:04:14.722Z,1.30
2023-08-12T19:18:14.551Z,1.10
2023-08-12T19:32:14.709Z,1.40
2023-08-12T19:46:14.325Z,1.40
2023-08-12T20:00:14.129Z,1.50
2023-08-12T20:14:13.984Z,1.40
2023-08-12T20:28:13.816Z,1.50
2023-08-12T20:42:13.675Z,1.60
2023-08-12T20:56:13.746Z,1.70
2023-08-12T21:10:13.360Z,1.90
2023-08-12T21:24:13.229Z,1.90
2023-08-12T21:38:13.065Z,1.90
2023-08-12T21:52:13.198Z,2.40
2023-08-12T22:06:13.351Z,2.30
2023-08-12T22:20:12.667Z,2.70
2023-08-12T22:34:12.491Z,2.90
2023-08-12T22:48:12.330Z,2.50
2023-08-12T23:02:12.536Z,2.20
2023-08-12T23:16:12.177Z,2.10
2023-08-12T23:30:11.973Z,2.00
2023-08-12T23:44:11.737Z,2.20
2023-08-12T23:58:11.593Z,2.30
